sensor_id;sensor_type;location;lat;lon;timestamp;P1;durP1;ratioP1;P2;durP2;ratioP2
6997;SDS011;3539;47.982;12.238;2023-04-24T00:00:07;1.90;;;1.70;;
6997;SDS011;3539;47.982;12.238;2023-04-24T00:02:35;1.63;;;1.53;;
6997;SDS011;3539;47.982;12.238;2023-04-24T00:05:02;1.77;;;1.67;;
6997;SDS011;3539;47.982;12.238;2023-04-24T00:07:29;2.50;;;1.80;;
6997;SDS011;3539;47.982;12.238;2023-04-24T00:09:56;2.97;;;1.80;;
6997;SDS011;3539;47.982;12.238;2023-04-24T00:12:23;1.57;;;1.47;;
6997;SDS011;3539;47.982;12.238;2023-04-24T00:14:52;1.40;;;1.30;;
6997;SDS011;3539;47.982;12.238;2023-04-24T00:17:19;1.60;;;1.40;;
6997;SDS011;3539;47.982;12.238;2023-04-24T00:19:46;1.60;;;1.50;;
6997;SDS011;3539;47.982;12.238;2023-04-24T00:22:12;1.40;;;1.30;;
6997;SDS011;3539;47.982;12.238;2023-04-24T00:24:39;1.53;;;1.43;;
6997;SDS011;3539;47.982;12.238;2023-04-24T00:27:06;1.20;;;1.10;;
6997;SDS011;3539;47.982;12.238;2023-04-24T00:29:33;1.63;;;1.40;;
6997;SDS011;3539;47.982;12.238;2023-04-24T00:32:01;3.80;;;1.90;;
6997;SDS011;3539;47.982;12.238;2023-04-24T00:34:28;2.00;;;1.80;;
6997;SDS011;3539;47.982;12.238;2023-04-24T00:36:54;1.40;;;1.30;;
6997;SDS011;3539;47.982;12.238;2023-04-24T00:39:21;1.97;;;1.20;;
6997;SDS011;3539;47.982;12.238;2023-04-24T00:41:49;1.53;;;1.30;;
6997;SDS011;3539;47.982;12.238;2023-04-24T00:44:15;1.40;;;1.30;;
6997;SDS011;3539;47.982;12.238;2023-04-24T00:46:42;1.53;;;1.43;;
6997;SDS011;3539;47.982;12.238;2023-04-24T00:49:10;1.70;;;1.60;;
6997;SDS011;3539;47.982;12.238;2023-04-24T00:51:38;1.63;;;1.53;;
6997;SDS011;3539;47.982;12.238;2023-04-24T00:54:05;1.63;;;1.33;;
6997;SDS011;3539;47.982;12.238;2023-04-24T00:56:32;1.40;;;1.30;;
6997;SDS011;3539;47.982;12.238;2023-04-24T00:58:59;1.70;;;1.33;;
6997;SDS011;3539;47.982;12.238;2023-04-24T01:01:26;2.37;;;1.30;;
6997;SDS011;3539;47.982;12.238;2023-04-24T01:03:53;1.80;;;1.23;;
6997;SDS011;3539;47.982;12.238;2023-04-24T01:06:21;1.87;;;1.30;;
6997;SDS011;3539;47.982;12.238;2023-04-24T01:08:48;1.30;;;1.20;;
6997;SDS011;3539;47.982;12.238;2023-04-24T01:11:16;1.40;;;1.30;;
6997;SDS011;3539;47.982;12.238;2023-04-24T01:13:42;1.40;;;1.30;;
6997;SDS011;3539;47.982;12.238;2023-04-24T01:16:09;1.53;;;1.43;;
6997;SDS011;3539;47.982;12.238;2023-04-24T01:18:36;1.70;;;1.30;;
6997;SDS011;3539;47.982;12.238;2023-04-24T01:21:03;1.40;;;1.30;;
6997;SDS011;3539;47.982;12.238;2023-04-24T01:23:32;1.30;;;1.20;;
6997;SDS011;3539;47.982;12.238;2023-04-24T01:25:58;1.40;;;1.30;;
6997;SDS011;3539;47.982;12.238;2023-04-24T01:28:25;1.50;;;1.40;;
6997;SDS011;3539;47.982;12.238;2023-04-24T01:30:52;1.30;;;1.20;;
6997;SDS011;3539;47.982;12.238;2023-04-24T01:33:20;1.43;;;1.30;;
6997;SDS011;3539;47.982;12.238;2023-04-24T01:35:47;1.30;;;1.20;;
6997;SDS011;3539;47.982;12.238;2023-04-24T01:38:14;1.97;;;1.40;;
6997;SDS011;3539;47.982;12.238;2023-04-24T01:40:43;1.30;;;1.20;;
6997;SDS011;3539;47.982;12.238;2023-04-24T01:43:10;1.37;;;1.27;;
6997;SDS011;3539;47.982;12.238;2023-04-24T01:45:37;1.40;;;1.30;;
6997;SDS011;3539;47.982;12.238;2023-04-24T01:48:04;1.90;;;1.70;;
6997;SDS011;3539;47.982;12.238;2023-04-24T01:50:30;1.60;;;1.50;;
6997;SDS011;3539;47.982;12.238;2023-04-24T01:52:57;1.40;;;1.30;;
6997;SDS011;3539;47.982;12.238;2023-04-24T01:55:24;2.07;;;1.30;;
6997;SDS011;3539;47.982;12.238;2023-04-24T01:57:52;2.17;;;1.50;;
6997;SDS011;3539;47.982;12.238;2023-04-24T02:00:22;1.10;;;1.10;;
6997;SDS011;3539;47.982;12.238;2023-04-24T02:02:50;1.70;;;1.33;;
6997;SDS011;3539;47.982;12.238;2023-04-24T02:05:17;2.00;;;1.30;;
6997;SDS011;3539;47.982;12.238;2023-04-24T02:07:43;1.20;;;1.10;;
6997;SDS011;3539;47.982;12.238;2023-04-24T02:10:10;1.00;;;1.00;;
6997;SDS011;3539;47.982;12.238;2023-04-24T02:12:37;0.90;;;0.90;;
6997;SDS011;3539;47.982;12.238;2023-04-24T02:15:05;1.00;;;1.00;;
6997;SDS011;3539;47.982;12.238;2023-04-24T02:17:32;2.60;;;1.50;;
6997;SDS011;3539;47.982;12.238;2023-04-24T02:19:59;1.80;;;1.33;;
6997;SDS011;3539;47.982;12.238;2023-04-24T02:22:26;1.33;;;1.23;;
6997;SDS011;3539;47.982;12.238;2023-04-24T02:24:52;1.27;;;1.17;;
6997;SDS011;3539;47.982;12.238;2023-04-24T02:27:19;1.33;;;1.10;;
6997;SDS011;3539;47.982;12.238;2023-04-24T02:29:46;1.50;;;1.20;;
6997;SDS011;3539;47.982;12.238;2023-04-24T02:32:14;1.50;;;1.40;;
6997;SDS011;3539;47.982;12.238;2023-04-24T02:34:41;1.73;;;1.57;;
6997;SDS011;3539;47.982;12.238;2023-04-24T02:37:08;1.50;;;1.37;;
6997;SDS011;3539;47.982;12.238;2023-04-24T02:39:34;1.50;;;1.40;;
6997;SDS011;3539;47.982;12.238;2023-04-24T02:42:01;1.50;;;1.40;;
6997;SDS011;3539;47.982;12.238;2023-04-24T02:44:28;1.60;;;1.50;;
6997;SDS011;3539;47.982;12.238;2023-04-24T02:46:54;1.60;;;1.30;;
6997;SDS011;3539;47.982;12.238;2023-04-24T02:49:23;1.60;;;1.50;;
6997;SDS011;3539;47.982;12.238;2023-04-24T02:51:49;1.80;;;1.60;;
6997;SDS011;3539;47.982;12.238;2023-04-24T02:54:16;1.63;;;1.53;;
6997;SDS011;3539;47.982;12.238;2023-04-24T02:56:43;1.70;;;1.60;;
6997;SDS011;3539;47.982;12.238;2023-04-24T02:59:09;2.30;;;2.10;;
6997;SDS011;3539;47.982;12.238;2023-04-24T03:01:36;2.13;;;1.80;;
6997;SDS011;3539;47.982;12.238;2023-04-24T03:04:03;2.10;;;1.87;;
6997;SDS011;3539;47.982;12.238;2023-04-24T03:06:31;1.90;;;1.80;;
6997;SDS011;3539;47.982;12.238;2023-04-24T03:09:00;2.03;;;1.93;;
6997;SDS011;3539;47.982;12.238;2023-04-24T03:11:28;1.80;;;1.70;;
6997;SDS011;3539;47.982;12.238;2023-04-24T03:13:55;2.20;;;2.00;;
6997;SDS011;3539;47.982;12.238;2023-04-24T03:16:21;2.60;;;1.70;;
6997;SDS011;3539;47.982;12.238;2023-04-24T03:18:48;1.97;;;1.87;;
6997;SDS011;3539;47.982;12.238;2023-04-24T03:21:15;2.90;;;1.73;;
6997;SDS011;3539;47.982;12.238;2023-04-24T03:23:43;2.10;;;1.90;;
6997;SDS011;3539;47.982;12.238;2023-04-24T03:26:10;1.90;;;1.80;;
6997;SDS011;3539;47.982;12.238;2023-04-24T03:28:37;3.33;;;1.80;;
6997;SDS011;3539;47.982;12.238;2023-04-24T03:31:03;2.43;;;1.60;;
6997;SDS011;3539;47.982;12.238;2023-04-24T03:33:30;1.83;;;1.30;;
6997;SDS011;3539;47.982;12.238;2023-04-24T03:35:57;1.93;;;1.57;;
6997;SDS011;3539;47.982;12.238;2023-04-24T03:38:24;1.73;;;1.30;;
6997;SDS011;3539;47.982;12.238;2023-04-24T03:40:52;1.60;;;1.50;;
6997;SDS011;3539;47.982;12.238;2023-04-24T03:43:18;1.40;;;1.30;;
6997;SDS011;3539;47.982;12.238;2023-04-24T03:45:45;1.37;;;1.27;;
6997;SDS011;3539;47.982;12.238;2023-04-24T03:48:12;1.50;;;1.40;;
6997;SDS011;3539;47.982;12.238;2023-04-24T03:50:38;2.57;;;1.50;;
6997;SDS011;3539;47.982;12.238;2023-04-24T03:53:05;2.23;;;1.60;;
6997;SDS011;3539;47.982;12.238;2023-04-24T03:55:33;1.97;;;1.63;;
6997;SDS011;3539;47.982;12.238;2023-04-24T03:58:01;1.67;;;1.57;;
6997;SDS011;3539;47.982;12.238;2023-04-24T04:00:28;2.53;;;1.90;;
6997;SDS011;3539;47.982;12.238;2023-04-24T04:02:58;2.83;;;2.53;;
6997;SDS011;3539;47.982;12.238;2023-04-24T04:05:25;3.97;;;3.43;;
6997;SDS011;3539;47.982;12.238;2023-04-24T04:07:51;3.00;;;2.70;;
6997;SDS011;3539;47.982;12.238;2023-04-24T04:10:18;31.00;;;22.23;;
6997;SDS011;3539;47.982;12.238;2023-04-24T04:12:45;13.93;;;12.53;;
6997;SDS011;3539;47.982;12.238;2023-04-24T04:15:13;3.80;;;2.87;;
6997;SDS011;3539;47.982;12.238;2023-04-24T04:17:41;1.57;;;1.47;;
6997;SDS011;3539;47.982;12.238;2023-04-24T04:20:08;1.60;;;1.50;;
6997;SDS011;3539;47.982;12.238;2023-04-24T04:22:35;2.80;;;1.80;;
6997;SDS011;3539;47.982;12.238;2023-04-24T04:25:02;1.60;;;1.50;;
6997;SDS011;3539;47.982;12.238;2023-04-24T04:27:30;1.47;;;1.37;;
6997;SDS011;3539;47.982;12.238;2023-04-24T04:29:57;2.00;;;1.80;;
6997;SDS011;3539;47.982;12.238;2023-04-24T04:32:25;2.70;;;1.40;;
6997;SDS011;3539;47.982;12.238;2023-04-24T04:34:52;2.27;;;1.47;;
6997;SDS011;3539;47.982;12.238;2023-04-24T04:37:19;2.03;;;1.40;;
6997;SDS011;3539;47.982;12.238;2023-04-24T04:39:46;2.13;;;1.30;;
6997;SDS011;3539;47.982;12.238;2023-04-24T04:42:12;1.87;;;1.73;;
6997;SDS011;3539;47.982;12.238;2023-04-24T04:44:40;4.33;;;1.63;;
6997;SDS011;3539;47.982;12.238;2023-04-24T04:47:07;2.53;;;1.60;;
6997;SDS011;3539;47.982;12.238;2023-04-24T04:49:37;2.53;;;1.80;;
6997;SDS011;3539;47.982;12.238;2023-04-24T04:52:04;2.03;;;1.50;;
6997;SDS011;3539;47.982;12.238;2023-04-24T04:54:31;1.50;;;1.40;;
6997;SDS011;3539;47.982;12.238;2023-04-24T04:56:59;1.40;;;1.13;;
6997;SDS011;3539;47.982;12.238;2023-04-24T04:59:26;1.53;;;1.40;;
6997;SDS011;3539;47.982;12.238;2023-04-24T05:01:53;1.70;;;1.60;;
6997;SDS011;3539;47.982;12.238;2023-04-24T05:04:26;2.13;;;1.57;;
6997;SDS011;3539;47.982;12.238;2023-04-24T05:07:14;2.37;;;1.50;;
6997;SDS011;3539;47.982;12.238;2023-04-24T05:09:43;1.50;;;1.40;;
6997;SDS011;3539;47.982;12.238;2023-04-24T05:12:12;2.00;;;1.50;;
6997;SDS011;3539;47.982;12.238;2023-04-24T05:14:40;1.40;;;1.30;;
6997;SDS011;3539;47.982;12.238;2023-04-24T05:17:08;1.63;;;1.53;;
6997;SDS011;3539;47.982;12.238;2023-04-24T05:19:36;3.00;;;1.80;;
6997;SDS011;3539;47.982;12.238;2023-04-24T05:22:03;1.60;;;1.50;;
6997;SDS011;3539;47.982;12.238;2023-04-24T05:24:33;1.93;;;1.33;;
6997;SDS011;3539;47.982;12.238;2023-04-24T05:27:00;2.37;;;1.33;;
6997;SDS011;3539;47.982;12.238;2023-04-24T05:29:29;2.07;;;1.40;;
6997;SDS011;3539;47.982;12.238;2023-04-24T05:31:56;1.43;;;1.33;;
6997;SDS011;3539;47.982;12.238;2023-04-24T05:34:23;1.30;;;1.20;;
6997;SDS011;3539;47.982;12.238;2023-04-24T05:36:50;2.13;;;1.30;;
6997;SDS011;3539;47.982;12.238;2023-04-24T05:39:17;1.30;;;1.20;;
6997;SDS011;3539;47.982;12.238;2023-04-24T05:41:46;1.53;;;1.20;;
6997;SDS011;3539;47.982;12.238;2023-04-24T05:44:13;1.67;;;1.30;;
6997;SDS011;3539;47.982;12.238;2023-04-24T05:50:20;1.57;;;1.47;;
6997;SDS011;3539;47.982;12.238;2023-04-24T05:52:51;1.43;;;1.30;;
6997;SDS011;3539;47.982;12.238;2023-04-24T05:55:23;2.73;;;1.70;;
6997;SDS011;3539;47.982;12.238;2023-04-24T05:57:57;2.63;;;2.43;;
6997;SDS011;3539;47.982;12.238;2023-04-24T06:00:29;3.00;;;2.60;;
6997;SDS011;3539;47.982;12.238;2023-04-24T06:02:59;2.07;;;1.67;;
6997;SDS011;3539;47.982;12.238;2023-04-24T06:05:28;3.03;;;2.43;;
6997;SDS011;3539;47.982;12.238;2023-04-24T06:08:00;2.37;;;1.50;;
6997;SDS011;3539;47.982;12.238;2023-04-24T06:10:31;1.77;;;1.20;;
6997;SDS011;3539;47.982;12.238;2023-04-24T06:13:04;2.30;;;1.20;;
6997;SDS011;3539;47.982;12.238;2023-04-24T06:15:35;1.13;;;1.10;;
6997;SDS011;3539;47.982;12.238;2023-04-24T06:18:05;1.37;;;1.27;;
6997;SDS011;3539;47.982;12.238;2023-04-24T06:20:37;2.03;;;1.20;;
6997;SDS011;3539;47.982;12.238;2023-04-24T06:23:04;1.30;;;1.20;;
6997;SDS011;3539;47.982;12.238;2023-04-24T06:25:34;1.20;;;1.10;;
6997;SDS011;3539;47.982;12.238;2023-04-24T06:28:08;1.10;;;1.00;;
6997;SDS011;3539;47.982;12.238;2023-04-24T06:30:38;1.33;;;1.10;;
6997;SDS011;3539;47.982;12.238;2023-04-24T06:33:08;1.47;;;1.20;;
6997;SDS011;3539;47.982;12.238;2023-04-24T06:35:41;1.30;;;1.20;;
6997;SDS011;3539;47.982;12.238;2023-04-24T06:38:13;1.37;;;1.27;;
6997;SDS011;3539;47.982;12.238;2023-04-24T06:40:42;1.30;;;1.20;;
6997;SDS011;3539;47.982;12.238;2023-04-24T06:43:14;1.10;;;1.00;;
6997;SDS011;3539;47.982;12.238;2023-04-24T06:45:43;1.47;;;1.20;;
6997;SDS011;3539;47.982;12.238;2023-04-24T06:48:19;1.40;;;1.30;;
6997;SDS011;3539;47.982;12.238;2023-04-24T06:51:05;1.37;;;1.20;;
6997;SDS011;3539;47.982;12.238;2023-04-24T06:53:35;1.60;;;1.30;;
6997;SDS011;3539;47.982;12.238;2023-04-24T06:56:09;1.40;;;1.30;;
6997;SDS011;3539;47.982;12.238;2023-04-24T06:58:42;2.20;;;1.50;;
6997;SDS011;3539;47.982;12.238;2023-04-24T07:01:21;1.60;;;1.33;;
6997;SDS011;3539;47.982;12.238;2023-04-24T07:03:55;1.20;;;1.10;;
6997;SDS011;3539;47.982;12.238;2023-04-24T07:06:27;1.30;;;1.20;;
6997;SDS011;3539;47.982;12.238;2023-04-24T07:09:15;1.40;;;1.30;;
6997;SDS011;3539;47.982;12.238;2023-04-24T07:12:03;1.20;;;1.10;;
6997;SDS011;3539;47.982;12.238;2023-04-24T07:14:41;0.90;;;0.90;;
6997;SDS011;3539;47.982;12.238;2023-04-24T07:17:22;0.90;;;0.90;;
6997;SDS011;3539;47.982;12.238;2023-04-24T07:20:03;2.57;;;2.37;;
6997;SDS011;3539;47.982;12.238;2023-04-24T07:22:43;4.03;;;2.93;;
6997;SDS011;3539;47.982;12.238;2023-04-24T07:25:28;5.47;;;4.03;;
6997;SDS011;3539;47.982;12.238;2023-04-24T07:28:05;4.83;;;4.30;;
6997;SDS011;3539;47.982;12.238;2023-04-24T07:30:51;8.97;;;6.77;;
6997;SDS011;3539;47.982;12.238;2023-04-24T07:33:27;7.83;;;6.00;;
6997;SDS011;3539;47.982;12.238;2023-04-24T07:36:15;7.37;;;4.07;;
6997;SDS011;3539;47.982;12.238;2023-04-24T07:39:08;6.00;;;4.93;;
6997;SDS011;3539;47.982;12.238;2023-04-24T07:41:42;4.20;;;3.80;;
6997;SDS011;3539;47.982;12.238;2023-04-24T07:44:11;3.53;;;2.77;;
6997;SDS011;3539;47.982;12.238;2023-04-24T07:46:48;4.07;;;3.03;;
6997;SDS011;3539;47.982;12.238;2023-04-24T07:49:22;11.10;;;6.53;;
6997;SDS011;3539;47.982;12.238;2023-04-24T07:52:01;11.87;;;6.73;;
6997;SDS011;3539;47.982;12.238;2023-04-24T07:54:28;48.07;;;30.63;;
6997;SDS011;3539;47.982;12.238;2023-04-24T07:56:55;35.33;;;23.27;;
6997;SDS011;3539;47.982;12.238;2023-04-24T07:59:25;45.60;;;29.33;;
6997;SDS011;3539;47.982;12.238;2023-04-24T08:01:57;63.10;;;42.23;;
6997;SDS011;3539;47.982;12.238;2023-04-24T08:04:24;32.07;;;21.90;;
6997;SDS011;3539;47.982;12.238;2023-04-24T08:07:05;22.63;;;15.43;;
6997;SDS011;3539;47.982;12.238;2023-04-24T08:09:35;24.17;;;16.37;;
6997;SDS011;3539;47.982;12.238;2023-04-24T08:12:06;19.33;;;13.90;;
6997;SDS011;3539;47.982;12.238;2023-04-24T08:14:35;3.37;;;2.57;;
6997;SDS011;3539;47.982;12.238;2023-04-24T08:17:03;2.23;;;2.03;;
6997;SDS011;3539;47.982;12.238;2023-04-24T08:19:31;6.53;;;5.00;;
6997;SDS011;3539;47.982;12.238;2023-04-24T08:21:59;3.57;;;2.73;;
6997;SDS011;3539;47.982;12.238;2023-04-24T08:24:40;8.53;;;6.47;;
6997;SDS011;3539;47.982;12.238;2023-04-24T08:27:10;6.50;;;4.87;;
6997;SDS011;3539;47.982;12.238;2023-04-24T08:29:39;7.43;;;5.97;;
6997;SDS011;3539;47.982;12.238;2023-04-24T08:32:08;5.87;;;4.77;;
6997;SDS011;3539;47.982;12.238;2023-04-24T08:34:38;1.80;;;1.30;;
6997;SDS011;3539;47.982;12.238;2023-04-24T08:37:05;13.03;;;8.23;;
6997;SDS011;3539;47.982;12.238;2023-04-24T08:39:36;9.10;;;6.87;;
6997;SDS011;3539;47.982;12.238;2023-04-24T08:42:03;2.03;;;1.37;;
6997;SDS011;3539;47.982;12.238;2023-04-24T08:44:33;2.77;;;2.10;;
6997;SDS011;3539;47.982;12.238;2023-04-24T08:47:03;1.20;;;1.10;;
6997;SDS011;3539;47.982;12.238;2023-04-24T08:49:37;0.70;;;0.70;;
6997;SDS011;3539;47.982;12.238;2023-04-24T08:52:05;0.80;;;0.70;;
6997;SDS011;3539;47.982;12.238;2023-04-24T08:54:33;0.80;;;0.73;;
6997;SDS011;3539;47.982;12.238;2023-04-24T08:57:00;0.70;;;0.70;;
6997;SDS011;3539;47.982;12.238;2023-04-24T08:59:28;2.10;;;0.70;;
6997;SDS011;3539;47.982;12.238;2023-04-24T09:01:59;1.47;;;0.70;;
6997;SDS011;3539;47.982;12.238;2023-04-24T09:04:29;0.43;;;0.43;;
6997;SDS011;3539;47.982;12.238;2023-04-24T09:07:09;0.70;;;0.70;;
6997;SDS011;3539;47.982;12.238;2023-04-24T09:10:06;0.60;;;0.60;;
6997;SDS011;3539;47.982;12.238;2023-04-24T09:13:22;0.47;;;0.47;;
6997;SDS011;3539;47.982;12.238;2023-04-24T09:19:30;0.63;;;0.63;;
6997;SDS011;3539;47.982;12.238;2023-04-24T09:25:42;0.70;;;0.70;;
6997;SDS011;3539;47.982;12.238;2023-04-24T09:28:14;0.60;;;0.60;;
6997;SDS011;3539;47.982;12.238;2023-04-24T09:30:49;0.60;;;0.60;;
6997;SDS011;3539;47.982;12.238;2023-04-24T09:33:29;0.50;;;0.50;;
6997;SDS011;3539;47.982;12.238;2023-04-24T09:35:55;0.70;;;0.70;;
6997;SDS011;3539;47.982;12.238;2023-04-24T09:38:34;0.57;;;0.50;;
6997;SDS011;3539;47.982;12.238;2023-04-24T09:41:13;1.47;;;0.80;;
6997;SDS011;3539;47.982;12.238;2023-04-24T09:43:42;0.77;;;0.77;;
6997;SDS011;3539;47.982;12.238;2023-04-24T09:46:19;1.57;;;1.20;;
6997;SDS011;3539;47.982;12.238;2023-04-24T09:48:48;1.50;;;1.20;;
6997;SDS011;3539;47.982;12.238;2023-04-24T09:51:15;1.57;;;1.47;;
6997;SDS011;3539;47.982;12.238;2023-04-24T09:53:47;2.87;;;1.40;;
6997;SDS011;3539;47.982;12.238;2023-04-24T09:56:20;1.80;;;1.70;;
6997;SDS011;3539;47.982;12.238;2023-04-24T09:58:48;1.70;;;1.53;;
6997;SDS011;3539;47.982;12.238;2023-04-24T10:01:28;1.90;;;1.80;;
6997;SDS011;3539;47.982;12.238;2023-04-24T10:04:03;1.50;;;1.40;;
6997;SDS011;3539;47.982;12.238;2023-04-24T10:06:32;0.90;;;0.90;;
6997;SDS011;3539;47.982;12.238;2023-04-24T10:09:00;1.40;;;1.30;;
6997;SDS011;3539;47.982;12.238;2023-04-24T10:11:28;1.33;;;1.17;;
6997;SDS011;3539;47.982;12.238;2023-04-24T10:13:56;1.00;;;1.00;;
6997;SDS011;3539;47.982;12.238;2023-04-24T10:16:23;1.20;;;1.10;;
6997;SDS011;3539;47.982;12.238;2023-04-24T10:18:52;3.20;;;2.13;;
6997;SDS011;3539;47.982;12.238;2023-04-24T10:21:19;1.70;;;1.00;;
6997;SDS011;3539;47.982;12.238;2023-04-24T10:23:48;1.10;;;1.00;;
6997;SDS011;3539;47.982;12.238;2023-04-24T10:26:16;2.33;;;2.10;;
6997;SDS011;3539;47.982;12.238;2023-04-24T10:28:46;1.33;;;1.20;;
6997;SDS011;3539;47.982;12.238;2023-04-24T10:31:14;1.10;;;1.00;;
6997;SDS011;3539;47.982;12.238;2023-04-24T10:33:41;2.67;;;2.33;;
6997;SDS011;3539;47.982;12.238;2023-04-24T10:36:10;1.27;;;1.17;;
6997;SDS011;3539;47.982;12.238;2023-04-24T10:38:38;0.90;;;0.90;;
6997;SDS011;3539;47.982;12.238;2023-04-24T10:41:07;1.13;;;1.03;;
6997;SDS011;3539;47.982;12.238;2023-04-24T10:43:40;0.83;;;0.83;;
6997;SDS011;3539;47.982;12.238;2023-04-24T10:46:09;1.10;;;1.00;;
6997;SDS011;3539;47.982;12.238;2023-04-24T10:48:44;1.33;;;1.17;;
6997;SDS011;3539;47.982;12.238;2023-04-24T10:51:54;1.23;;;1.00;;
6997;SDS011;3539;47.982;12.238;2023-04-24T10:54:41;1.50;;;1.10;;
6997;SDS011;3539;47.982;12.238;2023-04-24T10:57:27;1.23;;;1.10;;
6997;SDS011;3539;47.982;12.238;2023-04-24T11:00:16;2.43;;;1.43;;
6997;SDS011;3539;47.982;12.238;2023-04-24T11:02:48;1.70;;;1.40;;
6997;SDS011;3539;47.982;12.238;2023-04-24T11:05:18;1.10;;;1.00;;
6997;SDS011;3539;47.982;12.238;2023-04-24T11:14:07;0.90;;;0.90;;
6997;SDS011;3539;47.982;12.238;2023-04-24T11:16:42;0.90;;;0.90;;
6997;SDS011;3539;47.982;12.238;2023-04-24T11:19:20;1.17;;;1.00;;
6997;SDS011;3539;47.982;12.238;2023-04-24T11:21:54;1.20;;;1.00;;
6997;SDS011;3539;47.982;12.238;2023-04-24T11:24:23;1.50;;;1.10;;
6997;SDS011;3539;47.982;12.238;2023-04-24T11:26:51;0.90;;;0.90;;
6997;SDS011;3539;47.982;12.238;2023-04-24T11:29:19;2.90;;;1.47;;
6997;SDS011;3539;47.982;12.238;2023-04-24T11:31:47;1.00;;;1.00;;
6997;SDS011;3539;47.982;12.238;2023-04-24T11:34:17;1.77;;;1.47;;
6997;SDS011;3539;47.982;12.238;2023-04-24T11:36:47;1.10;;;1.00;;
6997;SDS011;3539;47.982;12.238;2023-04-24T11:39:14;1.23;;;1.00;;
6997;SDS011;3539;47.982;12.238;2023-04-24T11:41:41;1.10;;;1.00;;
6997;SDS011;3539;47.982;12.238;2023-04-24T11:44:37;1.53;;;0.90;;
6997;SDS011;3539;47.982;12.238;2023-04-24T11:47:06;0.90;;;0.90;;
6997;SDS011;3539;47.982;12.238;2023-04-24T11:49:34;0.90;;;0.90;;
6997;SDS011;3539;47.982;12.238;2023-04-24T11:52:03;1.53;;;1.30;;
6997;SDS011;3539;47.982;12.238;2023-04-24T11:54:49;1.80;;;1.00;;
6997;SDS011;3539;47.982;12.238;2023-04-24T11:57:16;1.17;;;0.90;;
6997;SDS011;3539;47.982;12.238;2023-04-24T11:59:45;1.50;;;1.00;;
6997;SDS011;3539;47.982;12.238;2023-04-24T12:02:19;1.77;;;1.23;;
6997;SDS011;3539;47.982;12.238;2023-04-24T12:04:49;1.57;;;1.10;;
6997;SDS011;3539;47.982;12.238;2023-04-24T12:07:16;1.20;;;1.10;;
6997;SDS011;3539;47.982;12.238;2023-04-24T12:09:56;1.77;;;1.23;;
6997;SDS011;3539;47.982;12.238;2023-04-24T12:12:27;1.03;;;1.00;;
6997;SDS011;3539;47.982;12.238;2023-04-24T12:15:07;1.30;;;1.10;;
6997;SDS011;3539;47.982;12.238;2023-04-24T12:17:40;1.27;;;1.17;;
6997;SDS011;3539;47.982;12.238;2023-04-24T12:20:12;0.90;;;0.90;;
6997;SDS011;3539;47.982;12.238;2023-04-24T12:22:43;0.97;;;0.97;;
6997;SDS011;3539;47.982;12.238;2023-04-24T12:25:12;0.90;;;0.90;;
6997;SDS011;3539;47.982;12.238;2023-04-24T12:27:41;1.17;;;1.10;;
6997;SDS011;3539;47.982;12.238;2023-04-24T12:30:10;1.00;;;1.00;;
6997;SDS011;3539;47.982;12.238;2023-04-24T12:32:41;1.33;;;1.23;;
6997;SDS011;3539;47.982;12.238;2023-04-24T12:35:13;1.00;;;0.90;;
6997;SDS011;3539;47.982;12.238;2023-04-24T12:37:41;3.60;;;2.30;;
6997;SDS011;3539;47.982;12.238;2023-04-24T12:40:09;2.07;;;1.10;;
6997;SDS011;3539;47.982;12.238;2023-04-24T12:42:47;1.03;;;0.97;;
6997;SDS011;3539;47.982;12.238;2023-04-24T12:45:15;1.47;;;1.00;;
6997;SDS011;3539;47.982;12.238;2023-04-24T12:47:43;1.30;;;1.00;;
6997;SDS011;3539;47.982;12.238;2023-04-24T12:50:13;0.90;;;0.90;;
6997;SDS011;3539;47.982;12.238;2023-04-24T12:52:41;1.57;;;1.03;;
6997;SDS011;3539;47.982;12.238;2023-04-24T12:55:09;1.00;;;0.90;;
6997;SDS011;3539;47.982;12.238;2023-04-24T12:57:37;1.87;;;1.03;;
6997;SDS011;3539;47.982;12.238;2023-04-24T13:00:06;1.87;;;1.77;;
6997;SDS011;3539;47.982;12.238;2023-04-24T13:02:34;1.97;;;1.77;;
6997;SDS011;3539;47.982;12.238;2023-04-24T13:05:01;1.20;;;1.10;;
6997;SDS011;3539;47.982;12.238;2023-04-24T13:07:30;1.20;;;1.10;;
6997;SDS011;3539;47.982;12.238;2023-04-24T13:09:57;1.30;;;1.03;;
6997;SDS011;3539;47.982;12.238;2023-04-24T13:12:28;1.30;;;1.20;;
6997;SDS011;3539;47.982;12.238;2023-04-24T13:14:55;0.90;;;0.90;;
6997;SDS011;3539;47.982;12.238;2023-04-24T13:17:22;1.20;;;1.10;;
6997;SDS011;3539;47.982;12.238;2023-04-24T13:19:54;1.30;;;1.20;;
6997;SDS011;3539;47.982;12.238;2023-04-24T13:22:23;5.10;;;2.70;;
6997;SDS011;3539;47.982;12.238;2023-04-24T13:24:52;2.53;;;1.50;;
6997;SDS011;3539;47.982;12.238;2023-04-24T13:27:30;1.23;;;1.10;;
6997;SDS011;3539;47.982;12.238;2023-04-24T13:30:22;3.37;;;2.57;;
6997;SDS011;3539;47.982;12.238;2023-04-24T13:33:06;1.93;;;1.50;;
6997;SDS011;3539;47.982;12.238;2023-04-24T13:35:48;1.90;;;1.73;;
6997;SDS011;3539;47.982;12.238;2023-04-24T13:38:27;2.07;;;1.50;;
6997;SDS011;3539;47.982;12.238;2023-04-24T13:41:14;1.40;;;1.30;;
6997;SDS011;3539;47.982;12.238;2023-04-24T13:47:06;2.60;;;1.70;;
6997;SDS011;3539;47.982;12.238;2023-04-24T13:49:50;2.20;;;2.00;;
6997;SDS011;3539;47.982;12.238;2023-04-24T13:53:30;1.80;;;1.70;;
6997;SDS011;3539;47.982;12.238;2023-04-24T13:55:39;3.27;;;1.60;;
6997;SDS011;3539;47.982;12.238;2023-04-24T13:58:48;2.63;;;2.43;;
6997;SDS011;3539;47.982;12.238;2023-04-24T14:01:41;3.37;;;3.07;;
6997;SDS011;3539;47.982;12.238;2023-04-24T14:04:16;3.17;;;1.93;;
6997;SDS011;3539;47.982;12.238;2023-04-24T14:06:53;1.77;;;1.67;;
6997;SDS011;3539;47.982;12.238;2023-04-24T14:09:33;1.70;;;1.30;;
6997;SDS011;3539;47.982;12.238;2023-04-24T14:12:24;2.07;;;1.70;;
6997;SDS011;3539;47.982;12.238;2023-04-24T14:15:16;2.83;;;2.23;;
6997;SDS011;3539;47.982;12.238;2023-04-24T14:17:59;2.97;;;2.53;;
6997;SDS011;3539;47.982;12.238;2023-04-24T14:20:53;1.80;;;1.70;;
6997;SDS011;3539;47.982;12.238;2023-04-24T14:23:29;1.60;;;1.50;;
6997;SDS011;3539;47.982;12.238;2023-04-24T14:26:03;1.70;;;1.60;;
6997;SDS011;3539;47.982;12.238;2023-04-24T14:29:04;2.53;;;1.40;;
6997;SDS011;3539;47.982;12.238;2023-04-24T14:32:00;1.87;;;1.50;;
6997;SDS011;3539;47.982;12.238;2023-04-24T14:34:59;1.57;;;1.47;;
6997;SDS011;3539;47.982;12.238;2023-04-24T14:37:38;1.97;;;1.77;;
6997;SDS011;3539;47.982;12.238;2023-04-24T14:40:43;1.73;;;1.63;;
6997;SDS011;3539;47.982;12.238;2023-04-24T14:46:46;1.30;;;1.20;;
6997;SDS011;3539;47.982;12.238;2023-04-24T14:52:24;4.70;;;3.27;;
6997;SDS011;3539;47.982;12.238;2023-04-24T14:55:09;1.33;;;1.23;;
6997;SDS011;3539;47.982;12.238;2023-04-24T14:57:41;1.40;;;1.20;;
6997;SDS011;3539;47.982;12.238;2023-04-24T15:00:16;3.27;;;1.60;;
6997;SDS011;3539;47.982;12.238;2023-04-24T15:02:57;1.20;;;1.10;;
6997;SDS011;3539;47.982;12.238;2023-04-24T15:05:53;1.90;;;1.53;;
6997;SDS011;3539;47.982;12.238;2023-04-24T15:08:34;1.60;;;1.50;;
6997;SDS011;3539;47.982;12.238;2023-04-24T15:11:07;1.30;;;1.20;;
6997;SDS011;3539;47.982;12.238;2023-04-24T15:13:37;2.00;;;1.87;;
6997;SDS011;3539;47.982;12.238;2023-04-24T15:16:23;1.50;;;1.27;;
6997;SDS011;3539;47.982;12.238;2023-04-24T15:18:59;3.30;;;1.40;;
6997;SDS011;3539;47.982;12.238;2023-04-24T15:21:32;1.50;;;1.20;;
6997;SDS011;3539;47.982;12.238;2023-04-24T15:24:00;2.40;;;1.30;;
6997;SDS011;3539;47.982;12.238;2023-04-24T15:26:33;2.30;;;1.40;;
6997;SDS011;3539;47.982;12.238;2023-04-24T15:29:26;26.57;;;12.40;;
6997;SDS011;3539;47.982;12.238;2023-04-24T15:32:06;2.67;;;1.90;;
6997;SDS011;3539;47.982;12.238;2023-04-24T15:34:38;2.10;;;1.50;;
6997;SDS011;3539;47.982;12.238;2023-04-24T15:37:08;1.50;;;1.37;;
6997;SDS011;3539;47.982;12.238;2023-04-24T15:39:37;2.07;;;1.40;;
6997;SDS011;3539;47.982;12.238;2023-04-24T15:42:05;1.50;;;1.40;;
6997;SDS011;3539;47.982;12.238;2023-04-24T15:44:38;1.50;;;1.30;;
6997;SDS011;3539;47.982;12.238;2023-04-24T15:47:08;1.93;;;1.63;;
6997;SDS011;3539;47.982;12.238;2023-04-24T15:49:39;1.50;;;1.40;;
6997;SDS011;3539;47.982;12.238;2023-04-24T15:52:09;4.23;;;1.30;;
6997;SDS011;3539;47.982;12.238;2023-04-24T15:54:36;1.47;;;1.37;;